sensor_id;sensor_type;location;lat;lon;timestamp;pressure;altitude;pressure_sealevel;temperature;humidity
64876;BME280;51369;49.862;9.908;2022-12-11T00:02:18;97681.34;;;0.28;81.15
64876;BME280;51369;49.862;9.908;2022-12-11T00:04:44;97685.75;;;0.29;81.29
64876;BME280;51369;49.862;9.908;2022-12-11T00:07:09;97689.28;;;0.29;81.56
64876;BME280;51369;49.862;9.908;2022-12-11T00:09:34;97692.81;;;0.30;80.94
64876;BME280;51369;49.862;9.908;2022-12-11T00:12:00;97697.22;;;0.31;80.97
64876;BME280;51369;49.862;9.908;2022-12-11T00:14:27;97691.00;;;0.32;81.44
64876;BME280;51369;49.862;9.908;2022-12-11T00:16:52;97689.25;;;0.32;81.72
64876;BME280;51369;49.862;9.908;2022-12-11T00:19:18;97684.81;;;0.33;80.90
64876;BME280;51369;49.862;9.908;2022-12-11T00:21:43;97697.19;;;0.34;80.96
64876;BME280;51369;49.862;9.908;2022-12-11T00:24:09;97693.63;;;0.35;81.78
64876;BME280;51369;49.862;9.908;2022-12-11T00:26:34;97701.56;;;0.37;81.30
64876;BME280;51369;49.862;9.908;2022-12-11T00:29:00;97698.91;;;0.37;81.48
64876;BME280;51369;49.862;9.908;2022-12-11T00:31:25;97705.97;;;0.39;81.10
64876;BME280;51369;49.862;9.908;2022-12-11T00:33:50;97702.41;;;0.40;81.43
64876;BME280;51369;49.862;9.908;2022-12-11T00:36:18;97697.97;;;0.41;81.35
64876;BME280;51369;49.862;9.908;2022-12-11T00:38:44;97695.31;;;0.42;81.72
64876;BME280;51369;49.862;9.908;2022-12-11T00:41:10;97702.38;;;0.43;81.86
64876;BME280;51369;49.862;9.908;2022-12-11T00:43:36;97692.63;;;0.44;81.30
64876;BME280;51369;49.862;9.908;2022-12-11T00:46:02;97696.16;;;0.44;81.05
64876;BME280;51369;49.862;9.908;2022-12-11T00:48:28;97702.34;;;0.46;81.77
64876;BME280;51369;49.862;9.908;2022-12-11T00:50:53;97695.25;;;0.45;81.44
64876;BME280;51369;49.862;9.908;2022-12-11T00:53:19;97692.59;;;0.45;81.11
64876;BME280;51369;49.862;9.908;2022-12-11T00:55:44;97701.44;;;0.46;81.23
64876;BME280;51369;49.862;9.908;2022-12-11T00:58:10;97699.69;;;0.46;81.03
64876;BME280;51369;49.862;9.908;2022-12-11T01:00:36;97700.56;;;0.47;81.14
64876;BME280;51369;49.862;9.908;2022-12-11T01:03:02;97703.22;;;0.47;80.92
64876;BME280;51369;49.862;9.908;2022-12-11T01:05:28;97701.44;;;0.46;81.65
64876;BME280;51369;49.862;9.908;2022-12-11T01:07:53;97704.97;;;0.46;80.55
64876;BME280;51369;49.862;9.908;2022-12-11T01:10:19;97707.63;;;0.46;80.75
64876;BME280;51369;49.862;9.908;2022-12-11T01:12:59;97721.78;;;0.47;81.69
64876;BME280;51369;49.862;9.908;2022-12-11T01:15:28;97720.91;;;0.48;81.09
64876;BME280;51369;49.862;9.908;2022-12-11T01:17:54;97720.88;;;0.49;81.42
64876;BME280;51369;49.862;9.908;2022-12-11T01:20:20;97722.63;;;0.50;81.08
64876;BME280;51369;49.862;9.908;2022-12-11T01:22:46;97720.84;;;0.51;81.39
64876;BME280;51369;49.862;9.908;2022-12-11T01:25:12;97715.53;;;0.52;81.59
64876;BME280;51369;49.862;9.908;2022-12-11T01:27:37;97718.19;;;0.52;80.95
64876;BME280;51369;49.862;9.908;2022-12-11T01:30:05;97720.81;;;0.54;81.29
64876;BME280;51369;49.862;9.908;2022-12-11T01:32:32;97708.41;;;0.56;81.14
64876;BME280;51369;49.862;9.908;2022-12-11T01:34:58;97717.22;;;0.58;81.14
64876;BME280;51369;49.862;9.908;2022-12-11T01:37:23;97713.66;;;0.60;80.42
64876;BME280;51369;49.862;9.908;2022-12-11T01:39:48;97708.31;;;0.62;80.58
64876;BME280;51369;49.862;9.908;2022-12-11T01:42:18;97704.75;;;0.63;80.69
64876;BME280;51369;49.862;9.908;2022-12-11T01:47:09;97706.50;;;0.65;80.18
64876;BME280;51369;49.862;9.908;2022-12-11T01:49:35;97709.13;;;0.67;80.11
64876;BME280;51369;49.862;9.908;2022-12-11T01:52:12;97710.91;;;0.67;79.28
64876;BME280;51369;49.862;9.908;2022-12-11T01:54:40;97713.50;;;0.70;79.46
64876;BME280;51369;49.862;9.908;2022-12-11T01:57:07;97706.41;;;0.70;79.69
64876;BME280;51369;49.862;9.908;2022-12-11T01:59:36;97707.28;;;0.71;79.13
64876;BME280;51369;49.862;9.908;2022-12-11T02:02:05;97702.00;;;0.71;79.75
64876;BME280;51369;49.862;9.908;2022-12-11T02:04:34;97708.19;;;0.71;78.88
64876;BME280;51369;49.862;9.908;2022-12-11T02:07:00;97708.19;;;0.71;79.08
64876;BME280;51369;49.862;9.908;2022-12-11T02:09:28;97706.41;;;0.70;78.56
64876;BME280;51369;49.862;9.908;2022-12-11T02:17:06;97717.13;;;0.65;78.92
64876;BME280;51369;49.862;9.908;2022-12-11T02:19:54;97711.81;;;0.64;78.32
64876;BME280;51369;49.862;9.908;2022-12-11T02:28:11;97714.50;;;0.62;79.15
64876;BME280;51369;49.862;9.908;2022-12-11T02:30:41;97714.50;;;0.62;78.98
64876;BME280;51369;49.862;9.908;2022-12-11T02:33:08;97710.97;;;0.62;78.80
64876;BME280;51369;49.862;9.908;2022-12-11T02:35:40;97714.53;;;0.59;78.39
64876;BME280;51369;49.862;9.908;2022-12-11T02:38:13;97707.47;;;0.58;78.43
64876;BME280;51369;49.862;9.908;2022-12-11T02:40:41;97714.59;;;0.56;78.26
64876;BME280;51369;49.862;9.908;2022-12-11T02:43:11;97717.31;;;0.52;78.06
64876;BME280;51369;49.862;9.908;2022-12-11T02:45:39;97720.00;;;0.49;78.12
64876;BME280;51369;49.862;9.908;2022-12-11T02:48:07;97714.75;;;0.44;78.78
64876;BME280;51369;49.862;9.908;2022-12-11T02:50:36;97714.78;;;0.41;78.77
64876;BME280;51369;49.862;9.908;2022-12-11T02:53:07;97712.22;;;0.35;78.56
64876;BME280;51369;49.862;9.908;2022-12-11T02:55:34;97711.41;;;0.30;78.20
64876;BME280;51369;49.862;9.908;2022-12-11T02:58:12;97706.19;;;0.21;78.69
64876;BME280;51369;49.862;9.908;2022-12-11T03:00:39;97715.09;;;0.17;78.35
64876;BME280;51369;49.862;9.908;2022-12-11T03:03:05;97714.28;;;0.12;78.28
64876;BME280;51369;49.862;9.908;2022-12-11T03:05:30;97710.81;;;0.05;78.88
64876;BME280;51369;49.862;9.908;2022-12-11T03:07:56;97711.81;;;-0.01;78.59
64876;BME280;51369;49.862;9.908;2022-12-11T03:10:21;97710.97;;;-0.06;78.32
64876;BME280;51369;49.862;9.908;2022-12-11T03:12:49;97717.22;;;-0.11;79.12
64876;BME280;51369;49.862;9.908;2022-12-11T03:15:18;97715.53;;;-0.17;79.20
64876;BME280;51369;49.862;9.908;2022-12-11T03:20:34;97712.09;;;-0.26;79.13
64876;BME280;51369;49.862;9.908;2022-12-11T03:23:18;97711.25;;;-0.31;78.96
64876;BME280;51369;49.862;9.908;2022-12-11T03:26:00;97709.53;;;-0.37;78.89
64876;BME280;51369;49.862;9.908;2022-12-11T03:28:43;97709.59;;;-0.42;79.24
64876;BME280;51369;49.862;9.908;2022-12-11T03:31:13;97704.34;;;-0.46;78.90
64876;BME280;51369;49.862;9.908;2022-12-11T03:33:45;97702.59;;;-0.50;79.16
64876;BME280;51369;49.862;9.908;2022-12-11T03:36:16;97700.88;;;-0.54;79.40
64876;BME280;51369;49.862;9.908;2022-12-11T03:38:58;97699.16;;;-0.60;79.43
64876;BME280;51369;49.862;9.908;2022-12-11T03:41:25;97709.81;;;-0.63;79.94
64876;BME280;51369;49.862;9.908;2022-12-11T03:43:53;97708.06;;;-0.67;80.11
64876;BME280;51369;49.862;9.908;2022-12-11T03:46:22;97716.94;;;-0.71;79.98
64876;BME280;51369;49.862;9.908;2022-12-11T03:48:49;97708.13;;;-0.73;79.86
64876;BME280;51369;49.862;9.908;2022-12-11T03:51:17;97709.03;;;-0.76;80.03
64876;BME280;51369;49.862;9.908;2022-12-11T03:53:43;97708.16;;;-0.78;80.25
64876;BME280;51369;49.862;9.908;2022-12-11T03:56:10;97719.66;;;-0.80;79.94
64876;BME280;51369;49.862;9.908;2022-12-11T03:58:37;97714.38;;;-0.82;80.00
64876;BME280;51369;49.862;9.908;2022-12-11T04:01:07;97707.34;;;-0.84;80.20
64876;BME280;51369;49.862;9.908;2022-12-11T04:03:33;97715.28;;;-0.84;80.82
64876;BME280;51369;49.862;9.908;2022-12-11T04:05:58;97706.44;;;-0.83;80.83
64876;BME280;51369;49.862;9.908;2022-12-11T04:08:23;97702.91;;;-0.82;80.62
64876;BME280;51369;49.862;9.908;2022-12-11T04:10:50;97707.28;;;-0.80;80.95
64876;BME280;51369;49.862;9.908;2022-12-11T04:13:35;97710.81;;;-0.78;80.89
64876;BME280;51369;49.862;9.908;2022-12-11T04:16:00;97707.28;;;-0.77;81.04
64876;BME280;51369;49.862;9.908;2022-12-11T04:18:25;97704.59;;;-0.75;81.05
64876;BME280;51369;49.862;9.908;2022-12-11T04:21:10;97703.72;;;-0.74;81.12
64876;BME280;51369;49.862;9.908;2022-12-11T04:24:05;97696.66;;;-0.74;81.10
64876;BME280;51369;49.862;9.908;2022-12-11T04:26:40;97699.28;;;-0.72;81.09
64876;BME280;51369;49.862;9.908;2022-12-11T04:29:05;97714.28;;;-0.71;81.08
64876;BME280;51369;49.862;9.908;2022-12-11T04:31:30;97710.72;;;-0.69;80.95
64876;BME280;51369;49.862;9.908;2022-12-11T04:33:56;97706.31;;;-0.68;81.25
64876;BME280;51369;49.862;9.908;2022-12-11T04:36:22;97711.59;;;-0.67;81.45
64876;BME280;51369;49.862;9.908;2022-12-11T04:38:48;97696.53;;;-0.63;81.73
64876;BME280;51369;49.862;9.908;2022-12-11T04:41:14;97701.81;;;-0.60;81.12
64876;BME280;51369;49.862;9.908;2022-12-11T04:43:40;97694.75;;;-0.59;81.71
64876;BME280;51369;49.862;9.908;2022-12-11T04:46:18;97690.31;;;-0.59;81.46
64876;BME280;51369;49.862;9.908;2022-12-11T04:48:45;97690.31;;;-0.57;81.04
64876;BME280;51369;49.862;9.908;2022-12-11T04:51:11;97692.06;;;-0.58;81.50
64876;BME280;51369;49.862;9.908;2022-12-11T04:53:36;97692.06;;;-0.58;81.73
64876;BME280;51369;49.862;9.908;2022-12-11T04:56:06;97696.50;;;-0.58;81.31
64876;BME280;51369;49.862;9.908;2022-12-11T04:58:33;97691.19;;;-0.57;80.97
64876;BME280;51369;49.862;9.908;2022-12-11T05:01:00;97693.84;;;-0.57;80.81
64876;BME280;51369;49.862;9.908;2022-12-11T05:03:30;97691.19;;;-0.58;80.98
64876;BME280;51369;49.862;9.908;2022-12-11T05:05:56;97694.75;;;-0.61;81.15
64876;BME280;51369;49.862;9.908;2022-12-11T05:08:21;97693.88;;;-0.61;80.88
64876;BME280;51369;49.862;9.908;2022-12-11T05:10:57;97690.38;;;-0.63;80.95
64876;BME280;51369;49.862;9.908;2022-12-11T05:13:22;97701.88;;;-0.64;80.88
64876;BME280;51369;49.862;9.908;2022-12-11T05:15:48;97697.47;;;-0.67;80.98
64876;BME280;51369;49.862;9.908;2022-12-11T05:18:14;97688.66;;;-0.69;81.34
64876;BME280;51369;49.862;9.908;2022-12-11T05:20:39;97692.19;;;-0.70;80.90
64876;BME280;51369;49.862;9.908;2022-12-11T05:23:04;97685.16;;;-0.73;80.53
64876;BME280;51369;49.862;9.908;2022-12-11T05:25:30;97695.75;;;-0.74;80.95
64876;BME280;51369;49.862;9.908;2022-12-11T05:27:55;97687.84;;;-0.77;81.24
64876;BME280;51369;49.862;9.908;2022-12-11T05:30:20;97686.09;;;-0.80;81.14
64876;BME280;51369;49.862;9.908;2022-12-11T05:32:46;97679.03;;;-0.81;81.08
64876;BME280;51369;49.862;9.908;2022-12-11T05:35:11;97668.44;;;-0.81;80.34
64876;BME280;51369;49.862;9.908;2022-12-11T05:37:36;97666.69;;;-0.82;80.88
64876;BME280;51369;49.862;9.908;2022-12-11T05:40:02;97676.41;;;-0.82;80.87
64876;BME280;51369;49.862;9.908;2022-12-11T05:42:31;97676.41;;;-0.82;81.06
64876;BME280;51369;49.862;9.908;2022-12-11T05:44:56;97676.41;;;-0.84;81.11
64876;BME280;51369;49.862;9.908;2022-12-11T05:47:22;97665.81;;;-0.82;81.07
64876;BME280;51369;49.862;9.908;2022-12-11T05:49:47;97662.25;;;-0.81;81.19
64876;BME280;51369;49.862;9.908;2022-12-11T05:52:12;97664.03;;;-0.83;80.88
64876;BME280;51369;49.862;9.908;2022-12-11T05:54:38;97672.88;;;-0.84;80.80
64876;BME280;51369;49.862;9.908;2022-12-11T05:57:03;97664.06;;;-0.86;80.66
64876;BME280;51369;49.862;9.908;2022-12-11T05:59:29;97670.28;;;-0.89;80.81
64876;BME280;51369;49.862;9.908;2022-12-11T06:01:54;97672.97;;;-0.92;80.72
64876;BME280;51369;49.862;9.908;2022-12-11T06:04:19;97677.41;;;-0.95;80.57
64876;BME280;51369;49.862;9.908;2022-12-11T06:06:45;97673.03;;;-1.00;80.49
64876;BME280;51369;49.862;9.908;2022-12-11T06:09:13;97678.34;;;-1.03;80.43
64876;BME280;51369;49.862;9.908;2022-12-11T06:11:39;97681.03;;;-1.06;80.65
64876;BME280;51369;49.862;9.908;2022-12-11T06:14:04;97678.38;;;-1.07;80.51
64876;BME280;51369;49.862;9.908;2022-12-11T06:16:30;97682.81;;;-1.09;80.88
64876;BME280;51369;49.862;9.908;2022-12-11T06:18:56;97683.72;;;-1.10;81.07
64876;BME280;51369;49.862;9.908;2022-12-11T06:21:27;97681.97;;;-1.14;80.72
64876;BME280;51369;49.862;9.908;2022-12-11T06:23:56;97681.97;;;-1.16;80.79
64876;BME280;51369;49.862;9.908;2022-12-11T06:26:22;97686.41;;;-1.16;80.69
64876;BME280;51369;49.862;9.908;2022-12-11T06:28:48;97689.03;;;-1.16;80.93
64876;BME280;51369;49.862;9.908;2022-12-11T06:31:14;97679.34;;;-1.16;80.80
64876;BME280;51369;49.862;9.908;2022-12-11T06:33:40;97674.88;;;-1.12;81.44
64876;BME280;51369;49.862;9.908;2022-12-11T06:36:14;97669.56;;;-1.09;81.28
64876;BME280;51369;49.862;9.908;2022-12-11T06:38:41;97681.88;;;-1.02;81.75
64876;BME280;51369;49.862;9.908;2022-12-11T06:41:07;97687.13;;;-0.98;81.36
64876;BME280;51369;49.862;9.908;2022-12-11T06:43:35;97686.22;;;-0.95;81.65
64876;BME280;51369;49.862;9.908;2022-12-11T06:46:05;97690.59;;;-0.89;81.83
64876;BME280;51369;49.862;9.908;2022-12-11T06:48:31;97683.50;;;-0.86;81.86
64876;BME280;51369;49.862;9.908;2022-12-11T06:50:56;97682.59;;;-0.82;81.81
64876;BME280;51369;49.862;9.908;2022-12-11T06:53:22;97672.84;;;-0.78;82.29
64876;BME280;51369;49.862;9.908;2022-12-11T06:55:47;97673.66;;;-0.72;82.12
64876;BME280;51369;49.862;9.908;2022-12-11T06:58:13;97662.13;;;-0.68;81.59
64876;BME280;51369;49.862;9.908;2022-12-11T07:00:38;97664.72;;;-0.61;81.71
64876;BME280;51369;49.862;9.908;2022-12-11T07:03:04;97669.09;;;-0.57;82.04
64876;BME280;51369;49.862;9.908;2022-12-11T07:05:30;97669.94;;;-0.54;81.65
64876;BME280;51369;49.862;9.908;2022-12-11T07:07:56;97665.50;;;-0.52;81.36
64876;BME280;51369;49.862;9.908;2022-12-11T07:10:22;97670.78;;;-0.49;81.27
64876;BME280;51369;49.862;9.908;2022-12-11T07:12:48;97672.50;;;-0.45;81.50
64876;BME280;51369;49.862;9.908;2022-12-11T07:15:14;97668.03;;;-0.41;81.49
64876;BME280;51369;49.862;9.908;2022-12-11T07:17:39;97669.78;;;-0.37;81.38
64876;BME280;51369;49.862;9.908;2022-12-11T07:20:05;97664.44;;;-0.34;80.99
64876;BME280;51369;49.862;9.908;2022-12-11T07:22:30;97667.03;;;-0.31;80.78
64876;BME280;51369;49.862;9.908;2022-12-11T07:24:56;97669.69;;;-0.29;81.20
64876;BME280;51369;49.862;9.908;2022-12-11T07:27:21;97666.13;;;-0.27;80.44
64876;BME280;51369;49.862;9.908;2022-12-11T07:29:47;97680.25;;;-0.25;80.92
64876;BME280;51369;49.862;9.908;2022-12-11T07:32:14;97669.59;;;-0.22;80.16
64876;BME280;51369;49.862;9.908;2022-12-11T07:34:39;97673.09;;;-0.20;80.19
64876;BME280;51369;49.862;9.908;2022-12-11T07:37:05;97681.03;;;-0.17;80.03
64876;BME280;51369;49.862;9.908;2022-12-11T07:39:30;97680.09;;;-0.13;79.63
64876;BME280;51369;49.862;9.908;2022-12-11T07:41:56;97671.25;;;-0.12;79.37
64876;BME280;51369;49.862;9.908;2022-12-11T07:44:21;97674.75;;;-0.10;79.01
64876;BME280;51369;49.862;9.908;2022-12-11T07:46:47;97673.00;;;-0.11;79.07
64876;BME280;51369;49.862;9.908;2022-12-11T07:49:13;97684.50;;;-0.10;78.89
64876;BME280;51369;49.862;9.908;2022-12-11T07:51:39;97678.28;;;-0.09;78.78
64876;BME280;51369;49.862;9.908;2022-12-11T07:54:10;97684.47;;;-0.09;78.70
64876;BME280;51369;49.862;9.908;2022-12-11T07:56:39;97694.19;;;-0.08;77.97
64876;BME280;51369;49.862;9.908;2022-12-11T07:59:05;97686.22;;;-0.08;78.75
64876;BME280;51369;49.862;9.908;2022-12-11T08:01:33;97689.75;;;-0.07;78.93
64876;BME280;51369;49.862;9.908;2022-12-11T08:04:01;97698.59;;;-0.05;78.01
64876;BME280;51369;49.862;9.908;2022-12-11T08:06:30;97696.81;;;-0.05;78.11
64876;BME280;51369;49.862;9.908;2022-12-11T08:08:56;97702.09;;;-0.03;78.19
64876;BME280;51369;49.862;9.908;2022-12-11T08:11:22;97699.44;;;-0.02;78.69
64876;BME280;51369;49.862;9.908;2022-12-11T08:13:48;97707.38;;;-0.02;78.34
64876;BME280;51369;49.862;9.908;2022-12-11T08:16:14;97705.63;;;-0.01;78.10
64876;BME280;51369;49.862;9.908;2022-12-11T08:18:40;97702.91;;;0.00;78.36
64876;BME280;51369;49.862;9.908;2022-12-11T08:21:12;97696.72;;;0.02;78.38
64876;BME280;51369;49.862;9.908;2022-12-11T08:23:38;97710.81;;;0.05;78.32
64876;BME280;51369;49.862;9.908;2022-12-11T08:26:06;97710.78;;;0.08;78.64
64876;BME280;51369;49.862;9.908;2022-12-11T08:28:32;97708.09;;;0.10;78.06
64876;BME280;51369;49.862;9.908;2022-12-11T08:30:58;97713.41;;;0.11;77.95
64876;BME280;51369;49.862;9.908;2022-12-11T08:33:24;97717.81;;;0.12;77.87
64876;BME280;51369;49.862;9.908;2022-12-11T08:35:49;97720.44;;;0.14;77.56
64876;BME280;51369;49.862;9.908;2022-12-11T08:38:14;97723.97;;;0.16;78.16
64876;BME280;51369;49.862;9.908;2022-12-11T08:40:40;97723.94;;;0.19;77.60
64876;BME280;51369;49.862;9.908;2022-12-11T08:43:05;97716.84;;;0.18;77.88
64876;BME280;51369;49.862;9.908;2022-12-11T08:45:31;97722.16;;;0.18;77.35
64876;BME280;51369;49.862;9.908;2022-12-11T08:47:58;97714.16;;;0.21;77.71
64876;BME280;51369;49.862;9.908;2022-12-11T08:50:23;97721.22;;;0.23;77.24
64876;BME280;51369;49.862;9.908;2022-12-11T08:52:48;97729.16;;;0.25;77.21
64876;BME280;51369;49.862;9.908;2022-12-11T08:55:14;97719.41;;;0.25;77.95
64876;BME280;51369;49.862;9.908;2022-12-11T08:57:39;97721.19;;;0.26;77.13
64876;BME280;51369;49.862;9.908;2022-12-11T09:00:06;97721.16;;;0.28;77.36
64876;BME280;51369;49.862;9.908;2022-12-11T09:02:33;97722.00;;;0.31;77.41
64876;BME280;51369;49.862;9.908;2022-12-11T09:04:59;97720.19;;;0.33;77.49
64876;BME280;51369;49.862;9.908;2022-12-11T09:07:24;97717.53;;;0.33;77.04
64876;BME280;51369;49.862;9.908;2022-12-11T09:09:53;97720.19;;;0.35;77.65
64876;BME280;51369;49.862;9.908;2022-12-11T09:12:19;97724.59;;;0.35;77.24
64876;BME280;51369;49.862;9.908;2022-12-11T09:14:44;97716.63;;;0.36;76.52
64876;BME280;51369;49.862;9.908;2022-12-11T09:17:10;97720.16;;;0.37;75.96
64876;BME280;51369;49.862;9.908;2022-12-11T09:19:35;97718.38;;;0.37;76.76
64876;BME280;51369;49.862;9.908;2022-12-11T09:22:00;97717.47;;;0.38;77.27
64876;BME280;51369;49.862;9.908;2022-12-11T09:24:26;97715.72;;;0.39;76.70
64876;BME280;51369;49.862;9.908;2022-12-11T09:26:51;97721.88;;;0.41;76.22
64876;BME280;51369;49.862;9.908;2022-12-11T09:29:16;97722.75;;;0.41;76.30
64876;BME280;51369;49.862;9.908;2022-12-11T09:31:42;97714.78;;;0.43;76.72
64876;BME280;51369;49.862;9.908;2022-12-11T09:34:11;97714.78;;;0.43;75.91
64876;BME280;51369;49.862;9.908;2022-12-11T09:36:40;97718.28;;;0.45;76.90
64876;BME280;51369;49.862;9.908;2022-12-11T09:39:07;97723.56;;;0.46;76.22
64876;BME280;51369;49.862;9.908;2022-12-11T09:44:53;97722.66;;;0.49;76.85
64876;BME280;51369;49.862;9.908;2022-12-11T09:47:34;97719.97;;;0.50;76.68
64876;BME280;51369;49.862;9.908;2022-12-11T09:55:20;97713.69;;;0.56;76.16
64876;BME280;51369;49.862;9.908;2022-12-11T10:00:47;97708.34;;;0.60;75.35
64876;BME280;51369;49.862;9.908;2022-12-11T10:06:06;97704.72;;;0.64;75.19
64876;BME280;51369;49.862;9.908;2022-12-11T10:11:27;97700.22;;;0.70;74.70
64876;BME280;51369;49.862;9.908;2022-12-11T10:17:01;97684.16;;;0.79;75.32
64876;BME280;51369;49.862;9.908;2022-12-11T10:19:30;97682.28;;;0.85;75.55
64876;BME280;51369;49.862;9.908;2022-12-11T10:21:57;97687.53;;;0.90;74.98
64876;BME280;51369;49.862;9.908;2022-12-11T10:24:39;97676.00;;;0.91;74.09
64876;BME280;51369;49.862;9.908;2022-12-11T10:27:16;97671.53;;;0.93;73.60
64876;BME280;51369;49.862;9.908;2022-12-11T10:29:43;97666.16;;;0.96;73.78
64876;BME280;51369;49.862;9.908;2022-12-11T10:32:18;97673.19;;;1.00;74.33
64876;BME280;51369;49.862;9.908;2022-12-11T10:34:47;97674.88;;;1.06;74.10
64876;BME280;51369;49.862;9.908;2022-12-11T10:37:14;97678.34;;;1.09;74.15
64876;BME280;51369;49.862;9.908;2022-12-11T10:39:39;97673.91;;;1.11;74.42
64876;BME280;51369;49.862;9.908;2022-12-11T10:42:18;97670.31;;;1.14;73.49
64876;BME280;51369;49.862;9.908;2022-12-11T10:44:55;97663.19;;;1.16;73.12
64876;BME280;51369;49.862;9.908;2022-12-11T10:47:21;97660.47;;;1.19;72.91
64876;BME280;51369;49.862;9.908;2022-12-11T10:49:57;97656.00;;;1.21;73.54
64876;BME280;51369;49.862;9.908;2022-12-11T10:55:02;97647.03;;;1.26;73.80
64876;BME280;51369;49.862;9.908;2022-12-11T10:57:30;97644.28;;;1.33;73.38
64876;BME280;51369;49.862;9.908;2022-12-11T10:59:56;97644.22;;;1.36;73.01
64876;BME280;51369;49.862;9.908;2022-12-11T11:02:31;97634.41;;;1.39;73.99
64876;BME280;51369;49.862;9.908;2022-12-11T11:05:00;97647.59;;;1.45;73.89
64876;BME280;51369;49.862;9.908;2022-12-11T11:07:34;97637.84;;;1.46;72.89
64876;BME280;51369;49.862;9.908;2022-12-11T11:10:25;97630.69;;;1.49;73.48
64876;BME280;51369;49.862;9.908;2022-12-11T11:13:16;97629.75;;;1.52;72.40
64876;BME280;51369;49.862;9.908;2022-12-11T11:16:10;97630.66;;;1.51;72.24
64876;BME280;51369;49.862;9.908;2022-12-11T11:19:02;97619.97;;;1.52;71.91
64876;BME280;51369;49.862;9.908;2022-12-11T11:22:03;97627.03;;;1.55;72.50
64876;BME280;51369;49.862;9.908;2022-12-11T11:24:55;97628.69;;;1.60;72.20
64876;BME280;51369;49.862;9.908;2022-12-11T11:27:53;97614.47;;;1.61;71.45
64876;BME280;51369;49.862;9.908;2022-12-11T11:30:58;97623.34;;;1.62;71.83
64876;BME280;51369;49.862;9.908;2022-12-11T11:33:55;97627.78;;;1.61;71.59
64876;BME280;51369;49.862;9.908;2022-12-11T11:36:55;97619.78;;;1.63;70.64
64876;BME280;51369;49.862;9.908;2022-12-11T11:39:47;97614.34;;;1.68;71.44
64876;BME280;51369;49.862;9.908;2022-12-11T11:42:46;97610.75;;;1.70;71.57
64876;BME280;51369;49.862;9.908;2022-12-11T11:45:44;97607.09;;;1.74;71.80
64876;BME280;51369;49.862;9.908;2022-12-11T11:48:59;97603.50;;;1.77;71.70
64876;BME280;51369;49.862;9.908;2022-12-11T11:51:55;97595.41;;;1.81;72.11
64876;BME280;51369;49.862;9.908;2022-12-11T11:54:57;97593.56;;;1.85;72.28
64876;BME280;51369;49.862;9.908;2022-12-11T11:57:59;97597.91;;;1.90;72.95
64876;BME280;51369;49.862;9.908;2022-12-11T12:00:54;97595.22;;;1.90;71.99
64876;BME280;51369;49.862;9.908;2022-12-11T12:03:46;97600.53;;;1.92;72.80
64876;BME280;51369;49.862;9.908;2022-12-11T12:06:58;97594.28;;;1.93;72.55
64876;BME280;51369;49.862;9.908;2022-12-11T12:10:35;97596.91;;;1.94;72.16
64876;BME280;51369;49.862;9.908;2022-12-11T12:13:37;97588.00;;;1.97;72.07
64876;BME280;51369;49.862;9.908;2022-12-11T12:22:59;97581.75;;;1.98;71.60
64876;BME280;51369;49.862;9.908;2022-12-11T12:26:14;97581.78;;;1.96;72.27
64876;BME280;51369;49.862;9.908;2022-12-11T12:32:39;97582.81;;;1.91;72.75
64876;BME280;51369;49.862;9.908;2022-12-11T12:35:39;97582.88;;;1.88;71.79
64876;BME280;51369;49.862;9.908;2022-12-11T12:38:52;97585.53;;;1.88;72.41
64876;BME280;51369;49.862;9.908;2022-12-11T12:42:10;97585.56;;;1.86;72.06
64876;BME280;51369;49.862;9.908;2022-12-11T12:45:15;97586.47;;;1.85;71.59
64876;BME280;51369;49.862;9.908;2022-12-11T12:48:08;97590.91;;;1.85;71.65
64876;BME280;51369;49.862;9.908;2022-12-11T12:50:58;97582.06;;;1.84;71.42
64876;BME280;51369;49.862;9.908;2022-12-11T12:53:56;97587.38;;;1.84;72.77
64876;BME280;51369;49.862;9.908;2022-12-11T12:56:48;97584.69;;;1.86;72.87
64876;BME280;51369;49.862;9.908;2022-12-11T12:59:38;97581.19;;;1.84;72.13
64876;BME280;51369;49.862;9.908;2022-12-11T13:02:29;97583.78;;;1.87;72.02
64876;BME280;51369;49.862;9.908;2022-12-11T13:05:26;97582.88;;;1.88;72.78
64876;BME280;51369;49.862;9.908;2022-12-11T13:08:24;97579.31;;;1.87;72.63
64876;BME280;51369;49.862;9.908;2022-12-11T13:11:17;97585.53;;;1.88;72.81
64876;BME280;51369;49.862;9.908;2022-12-11T13:20:16;97582.88;;;1.88;72.38
64876;BME280;51369;49.862;9.908;2022-12-11T13:23:16;97582.03;;;1.86;72.13
64876;BME280;51369;49.862;9.908;2022-12-11T13:26:08;97582.00;;;1.87;72.27
64876;BME280;51369;49.862;9.908;2022-12-11T13:28:58;97585.53;;;1.88;72.68
64876;BME280;51369;49.862;9.908;2022-12-11T13:31:59;97587.28;;;1.89;71.75
64876;BME280;51369;49.862;9.908;2022-12-11T13:34:56;97589.91;;;1.90;71.85
64876;BME280;51369;49.862;9.908;2022-12-11T13:37:49;97591.66;;;1.91;72.21
64876;BME280;51369;49.862;9.908;2022-12-11T13:40:43;97589.91;;;1.90;72.37
64876;BME280;51369;49.862;9.908;2022-12-11T16:25:31;97639.69;;;0.31;76.02
64876;BME280;51369;49.862;9.908;2022-12-11T16:27:59;97635.31;;;0.29;76.66
64876;BME280;51369;49.862;9.908;2022-12-11T16:30:26;97634.47;;;0.25;76.38
64876;BME280;51369;49.862;9.908;2022-12-11T16:32:51;97634.50;;;0.24;76.80
64876;BME280;51369;49.862;9.908;2022-12-11T16:35:18;97635.38;;;0.23;76.01
64876;BME280;51369;49.862;9.908;2022-12-11T16:37:46;97638.09;;;0.20;76.18
64876;BME280;51369;49.862;9.908;2022-12-11T16:40:12;97637.22;;;0.19;76.58
64876;BME280;51369;49.862;9.908;2022-12-11T16:42:38;97642.53;;;0.18;76.54
64876;BME280;51369;49.862;9.908;2022-12-11T16:45:11;97636.34;;;0.17;75.90
64876;BME280;51369;49.862;9.908;2022-12-11T16:47:37;97630.16;;;0.17;76.50
64876;BME280;51369;49.862;9.908;2022-12-11T16:50:03;97626.66;;;0.15;76.20
64876;BME280;51369;49.862;9.908;2022-12-11T16:52:30;97627.56;;;0.14;76.59
64876;BME280;51369;49.862;9.908;2022-12-11T16:54:56;97625.78;;;0.13;76.00
64876;BME280;51369;49.862;9.908;2022-12-11T16:57:21;97636.44;;;0.11;75.33
64876;BME280;51369;49.862;9.908;2022-12-11T16:59:47;97634.69;;;0.10;76.32
64876;BME280;51369;49.862;9.908;2022-12-11T17:02:12;97632.03;;;0.10;75.58
64876;BME280;51369;49.862;9.908;2022-12-11T17:04:38;97622.31;;;0.09;76.01
64876;BME280;51369;49.862;9.908;2022-12-11T17:07:04;97629.38;;;0.09;75.83
64876;BME280;51369;49.862;9.908;2022-12-11T17:09:30;97630.28;;;0.08;76.66
64876;BME280;51369;49.862;9.908;2022-12-11T17:11:56;97632.03;;;0.09;75.91